createdAt,value
2022-11-04T00:01:46.693Z,100.00
2022-11-04T00:04:15.769Z,100.00
2022-11-04T00:06:43.726Z,100.00
2022-11-04T00:09:13.578Z,100.00
2022-11-04T00:12:24.817Z,100.00
2022-11-04T00:14:52.615Z,100.00
2022-11-04T00:17:20.490Z,100.00
2022-11-04T00:20:13.238Z,100.00
2022-11-04T00:23:01.093Z,100.00
2022-11-04T00:25:47.271Z,100.00
2022-11-04T00:28:35.398Z,100.00
2022-11-04T00:31:23.678Z,100.00
2022-11-04T00:33:52.485Z,100.00
2022-11-04T00:36:20.330Z,100.00
2022-11-04T00:38:48.150Z,100.00
2022-11-04T00:41:28.426Z,100.00
2022-11-04T00:44:01.222Z,100.00
2022-11-04T00:46:30.098Z,100.00
2022-11-04T00:48:57.915Z,100.00
2022-11-04T00:51:25.721Z,100.00
2022-11-04T00:53:53.569Z,100.00
2022-11-04T00:56:21.348Z,100.00
2022-11-04T00:58:50.726Z,100.00
2022-11-04T01:01:19.035Z,100.00
2022-11-04T01:03:51.037Z,100.00
2022-11-04T01:06:19.176Z,100.00
2022-11-04T01:08:46.969Z,100.00
2022-11-04T01:11:14.851Z,100.00
2022-11-04T01:13:42.840Z,99.97
2022-11-04T01:16:11.592Z,100.00
2022-11-04T01:18:39.504Z,100.00
2022-11-04T01:21:08.057Z,99.98
2022-11-04T01:23:36.006Z,99.96
2022-11-04T01:26:07.482Z,99.50
2022-11-04T01:28:35.306Z,98.08
2022-11-04T01:31:20.174Z,97.85
2022-11-04T01:33:49.025Z,99.14
2022-11-04T01:36:17.098Z,98.75
2022-11-04T01:38:45.117Z,99.19
2022-11-04T01:41:26.660Z,100.00
2022-11-04T01:44:05.364Z,97.99
2022-11-04T01:46:47.700Z,99.62
2022-11-04T01:49:37.895Z,98.57
2022-11-04T01:52:14.617Z,100.00
2022-11-04T01:54:42.646Z,100.00
2022-11-04T01:57:14.882Z,100.00
2022-11-04T01:59:43.007Z,100.00
2022-11-04T02:02:10.997Z,100.00
2022-11-04T02:04:39.433Z,100.00
2022-11-04T02:07:08.704Z,100.00
2022-11-04T02:09:37.341Z,100.00
2022-11-04T02:12:23.776Z,100.00
2022-11-04T02:14:51.610Z,100.00
2022-11-04T02:17:19.273Z,100.00
2022-11-04T02:20:17.635Z,100.00
2022-11-04T02:23:00.576Z,100.00
2022-11-04T02:25:46.999Z,100.00
2022-11-04T02:28:26.836Z,100.00
2022-11-04T02:30:58.095Z,100.00
2022-11-04T02:33:51.827Z,100.00
2022-11-04T02:36:50.269Z,100.00
2022-11-04T02:39:32.121Z,100.00
2022-11-04T02:42:28.955Z,100.00
2022-11-04T02:45:09.762Z,100.00
2022-11-04T02:47:38.196Z,100.00
2022-11-04T02:50:16.448Z,100.00
2022-11-04T02:53:01.462Z,100.00
2022-11-04T02:55:56.413Z,100.00
2022-11-04T02:58:30.980Z,100.00
2022-11-04T03:00:58.991Z,100.00
2022-11-04T03:03:28.160Z,100.00
2022-11-04T03:05:56.401Z,100.00
2022-11-04T03:08:39.294Z,100.00
2022-11-04T03:11:13.229Z,100.00
2022-11-04T03:14:00.375Z,100.00
2022-11-04T03:16:37.567Z,100.00
2022-11-04T03:19:08.144Z,100.00
2022-11-04T03:21:38.527Z,100.00
2022-11-04T03:24:06.563Z,100.00
2022-11-04T03:26:43.250Z,100.00
2022-11-04T03:29:32.550Z,100.00
2022-11-04T03:32:05.771Z,100.00
2022-11-04T03:34:33.639Z,100.00
2022-11-04T03:37:01.380Z,100.00
2022-11-04T03:39:29.133Z,100.00
2022-11-04T03:41:58.217Z,100.00
2022-11-04T03:44:26.192Z,100.00
2022-11-04T03:46:54.966Z,100.00
2022-11-04T03:49:23.662Z,100.00
2022-11-04T03:51:54.326Z,100.00
2022-11-04T03:54:22.141Z,100.00
2022-11-04T03:57:17.952Z,100.00
2022-11-04T03:59:45.541Z,100.00
2022-11-04T04:02:57.165Z,100.00
2022-11-04T04:05:32.249Z,100.00
2022-11-04T04:08:12.088Z,100.00
2022-11-04T04:11:17.475Z,100.00
2022-11-04T04:14:06.392Z,100.00
2022-11-04T04:16:36.209Z,100.00
2022-11-04T04:19:22.194Z,100.00
2022-11-04T04:22:02.652Z,100.00
2022-11-04T04:24:53.285Z,100.00
2022-11-04T04:27:33.620Z,100.00
2022-11-04T04:30:19.949Z,100.00
2022-11-04T04:32:53.164Z,100.00
2022-11-04T04:35:43.754Z,100.00
2022-11-04T04:38:46.397Z,100.00
2022-11-04T04:41:51.117Z,100.00
2022-11-04T04:44:44.997Z,100.00
2022-11-04T04:47:21.060Z,100.00
2022-11-04T04:49:55.731Z,100.00
2022-11-04T04:52:23.728Z,100.00
2022-11-04T04:54:51.522Z,100.00
2022-11-04T04:57:19.305Z,100.00
2022-11-04T04:59:47.046Z,100.00
2022-11-04T05:02:14.980Z,100.00
2022-11-04T05:04:42.876Z,100.00
2022-11-04T05:07:11.217Z,100.00
2022-11-04T05:09:39.028Z,100.00
2022-11-04T05:12:07.045Z,100.00
2022-11-04T05:14:34.801Z,100.00
2022-11-04T05:17:02.586Z,100.00
2022-11-04T05:19:30.362Z,100.00
2022-11-04T05:21:58.170Z,100.00
2022-11-04T05:24:25.964Z,100.00
2022-11-04T05:26:53.790Z,100.00
2022-11-04T05:29:21.602Z,100.00
2022-11-04T05:31:49.463Z,100.00
2022-11-04T05:34:17.238Z,100.00
2022-11-04T05:36:45.022Z,100.00
2022-11-04T05:39:14.388Z,100.00
2022-11-04T05:41:42.262Z,100.00
2022-11-04T05:44:10.778Z,100.00
2022-11-04T05:46:38.580Z,100.00
2022-11-04T05:49:06.682Z,100.00
2022-11-04T05:51:34.604Z,100.00
2022-11-04T05:54:02.867Z,100.00
2022-11-04T05:56:30.697Z,100.00
2022-11-04T05:58:58.476Z,100.00
2022-11-04T06:01:30.273Z,100.00
2022-11-04T06:03:58.711Z,100.00
2022-11-04T06:06:27.064Z,100.00
2022-11-04T06:08:55.115Z,100.00
2022-11-04T06:11:23.128Z,100.00
2022-11-04T06:13:51.076Z,100.00
2022-11-04T06:16:18.837Z,100.00
2022-11-04T06:18:46.695Z,100.00
2022-11-04T06:21:14.416Z,100.00
2022-11-04T06:23:45.527Z,100.00
2022-11-04T06:26:13.681Z,100.00
2022-11-04T06:28:42.060Z,100.00
2022-11-04T06:31:10.626Z,100.00
2022-11-04T06:33:38.389Z,100.00
2022-11-04T06:36:07.377Z,100.00
2022-11-04T06:38:36.456Z,100.00
2022-11-04T06:43:33.297Z,100.00
2022-11-04T06:46:02.457Z,100.00
2022-11-04T06:48:31.873Z,100.00
2022-11-04T06:51:00.516Z,100.00
2022-11-04T06:53:28.874Z,100.00
2022-11-04T06:56:03.163Z,100.00
2022-11-04T06:58:31.042Z,100.00
2022-11-04T07:00:58.921Z,100.00
2022-11-04T07:03:26.715Z,100.00
2022-11-04T07:05:54.572Z,100.00
2022-11-04T07:08:22.363Z,100.00
2022-11-04T07:10:50.081Z,100.00
2022-11-04T07:13:18.826Z,100.00
2022-11-04T07:15:46.776Z,100.00
2022-11-04T07:18:14.532Z,100.00
2022-11-04T07:20:42.326Z,100.00
2022-11-04T07:23:10.044Z,100.00
2022-11-04T07:25:37.873Z,100.00
2022-11-04T07:28:06.848Z,100.00
2022-11-04T07:30:34.655Z,100.00
2022-11-04T07:33:02.431Z,100.00
2022-11-04T07:35:30.186Z,100.00
2022-11-04T07:37:57.930Z,100.00
2022-11-04T07:40:25.684Z,100.00
2022-11-04T07:42:53.417Z,100.00
2022-11-04T07:45:21.214Z,100.00
2022-11-04T07:47:49.015Z,100.00
2022-11-04T07:50:16.805Z,100.00
2022-11-04T07:52:44.681Z,100.00
2022-11-04T07:55:15.053Z,100.00
2022-11-04T07:57:42.810Z,100.00
2022-11-04T08:00:11.355Z,100.00
2022-11-04T08:02:39.277Z,100.00
2022-11-04T08:05:07.671Z,100.00
2022-11-04T08:07:35.504Z,100.00
2022-11-04T08:10:03.769Z,100.00
2022-11-04T08:12:33.413Z,100.00
2022-11-04T08:15:01.342Z,100.00
2022-11-04T08:17:29.119Z,100.00
2022-11-04T08:19:56.991Z,100.00
2022-11-04T08:22:27.616Z,100.00
2022-11-04T08:24:59.643Z,100.00
2022-11-04T08:27:27.471Z,100.00
2022-11-04T08:29:55.232Z,100.00
2022-11-04T08:32:23.043Z,100.00
2022-11-04T08:34:50.927Z,100.00
2022-11-04T08:37:19.463Z,100.00
2022-11-04T08:39:47.420Z,100.00
2022-11-04T08:42:15.196Z,100.00
2022-11-04T08:44:44.059Z,100.00
2022-11-04T08:47:11.899Z,100.00
2022-11-04T08:49:43.187Z,100.00
2022-11-04T08:52:11.268Z,100.00
2022-11-04T08:54:38.984Z,100.00
2022-11-04T08:57:06.985Z,100.00
2022-11-04T08:59:34.794Z,100.00
2022-11-04T09:02:02.551Z,100.00
2022-11-04T09:04:30.368Z,100.00
2022-11-04T09:06:59.246Z,100.00
2022-11-04T09:09:27.064Z,100.00
2022-11-04T09:11:55.412Z,100.00
2022-11-04T09:14:24.937Z,99.07
2022-11-04T09:16:52.708Z,100.00
2022-11-04T09:19:20.466Z,99.84
2022-11-04T09:21:48.226Z,98.41
2022-11-04T09:24:16.173Z,96.51
2022-11-04T09:26:45.874Z,96.13
2022-11-04T09:29:13.592Z,95.99
2022-11-04T09:31:41.679Z,94.62
2022-11-04T09:34:09.432Z,95.60
2022-11-04T09:36:37.232Z,94.61
2022-11-04T09:39:05.676Z,95.84
2022-11-04T09:41:55.311Z,92.99
2022-11-04T09:44:24.849Z,93.54
2022-11-04T09:46:54.056Z,92.98
2022-11-04T09:49:21.978Z,90.01
2022-11-04T09:51:54.897Z,91.98
2022-11-04T09:54:25.739Z,92.04
2022-11-04T09:56:54.247Z,86.55
2022-11-04T09:59:30.272Z,91.27
2022-11-04T10:02:01.450Z,92.29
2022-11-04T10:04:47.792Z,90.15
2022-11-04T10:07:32.517Z,89.67
2022-11-04T10:10:12.325Z,90.00
2022-11-04T10:12:54.765Z,89.91
2022-11-04T10:15:41.421Z,89.62
2022-11-04T10:18:30.611Z,89.22
2022-11-04T10:21:23.620Z,85.53
2022-11-04T10:24:05.459Z,83.50
2022-11-04T10:26:53.755Z,88.03
2022-11-04T10:29:32.126Z,81.39
2022-11-04T10:31:59.917Z,78.82
2022-11-04T10:34:40.854Z,79.91
2022-11-04T10:37:11.831Z,82.44
2022-11-04T10:39:43.550Z,84.65
2022-11-04T10:42:13.719Z,83.89
2022-11-04T10:44:41.552Z,85.11
2022-11-04T10:47:17.989Z,83.69
2022-11-04T10:50:26.615Z,82.93
2022-11-04T10:52:43.659Z,79.16
2022-11-04T10:55:28.050Z,82.32
2022-11-04T10:57:59.137Z,80.54
2022-11-04T11:00:35.080Z,80.27
2022-11-04T11:03:02.950Z,81.05
2022-11-04T11:05:30.768Z,80.43
2022-11-04T11:07:59.640Z,81.96
2022-11-04T11:10:30.224Z,81.24
2022-11-04T11:12:59.032Z,82.51
2022-11-04T11:15:27.360Z,82.14
2022-11-04T11:18:01.113Z,80.04
2022-11-04T11:20:28.992Z,73.17
2022-11-04T11:23:03.534Z,73.23
2022-11-04T11:25:32.943Z,68.29
2022-11-04T11:28:26.768Z,71.76
2022-11-04T11:31:05.413Z,69.06
2022-11-04T11:33:37.486Z,75.11
2022-11-04T11:36:15.867Z,72.89
2022-11-04T11:39:06.989Z,70.32
2022-11-04T11:41:40.986Z,67.99
2022-11-04T11:44:39.782Z,69.16
2022-11-04T11:47:09.001Z,70.89
2022-11-04T11:49:39.198Z,72.61
2022-11-04T11:52:31.087Z,70.61
2022-11-04T11:55:18.993Z,68.63
2022-11-04T12:01:03.138Z,62.82
2022-11-04T12:09:57.761Z,67.08
2022-11-04T12:12:37.366Z,64.71
2022-11-04T12:15:26.710Z,62.30
2022-11-04T12:17:54.429Z,65.24
2022-11-04T12:21:07.292Z,66.29
2022-11-04T12:23:45.171Z,69.02
2022-11-04T12:26:35.033Z,70.69
2022-11-04T12:29:21.501Z,67.02
2022-11-04T12:32:11.375Z,67.38
2022-11-04T12:35:49.945Z,71.40
2022-11-04T12:38:32.777Z,67.41
2022-11-04T12:42:06.428Z,71.66
2022-11-04T12:44:31.268Z,70.36
2022-11-04T12:47:40.552Z,67.52
2022-11-04T12:50:19.520Z,67.69
2022-11-04T12:52:56.970Z,70.16
2022-11-04T12:55:42.541Z,68.85
2022-11-04T12:58:33.549Z,70.10
2022-11-04T13:01:11.038Z,68.51
2022-11-04T13:03:57.491Z,68.71
2022-11-04T13:06:44.174Z,68.02
2022-11-04T13:09:31.632Z,73.37
2022-11-04T13:12:05.023Z,73.63
2022-11-04T13:14:52.664Z,77.55
2022-11-04T13:17:27.355Z,85.11
2022-11-04T13:19:59.862Z,80.91
2022-11-04T13:22:33.939Z,84.41
2022-11-04T13:25:13.745Z,85.02
2022-11-04T13:27:46.170Z,83.19
2022-11-04T13:30:23.201Z,82.89
2022-11-04T13:32:59.916Z,79.06
2022-11-04T13:35:42.352Z,84.43
2022-11-04T13:38:15.404Z,81.30
2022-11-04T13:41:08.894Z,83.92
2022-11-04T13:43:39.395Z,84.21
2022-11-04T13:46:09.857Z,79.67
2022-11-04T13:48:39.298Z,80.70
2022-11-04T13:51:08.654Z,81.02
2022-11-04T13:53:42.600Z,76.46
2022-11-04T13:56:32.350Z,81.60
2022-11-04T13:59:02.211Z,79.60
2022-11-04T14:01:34.371Z,76.39
2022-11-04T14:04:31.558Z,77.81
2022-11-04T14:07:05.862Z,80.66
2022-11-04T14:09:35.024Z,79.96
2022-11-04T14:12:11.955Z,79.20
2022-11-04T14:14:43.359Z,80.95
2022-11-04T14:17:35.883Z,77.90
2022-11-04T14:20:07.186Z,76.39
2022-11-04T14:22:49.263Z,77.14
2022-11-04T14:25:27.556Z,74.20
2022-11-04T14:28:00.340Z,81.92
2022-11-04T14:30:47.230Z,75.90
2022-11-04T14:33:36.610Z,74.50
2022-11-04T14:36:22.745Z,75.35
2022-11-04T14:39:01.694Z,76.12
2022-11-04T14:41:29.298Z,76.76
2022-11-04T14:43:59.169Z,80.11
2022-11-04T14:46:29.524Z,77.29
2022-11-04T14:48:58.978Z,76.87
2022-11-04T14:51:32.076Z,75.94
2022-11-04T14:54:12.151Z,76.09
2022-11-04T14:56:39.898Z,74.61
2022-11-04T14:59:08.089Z,77.95
2022-11-04T15:01:39.870Z,80.79
2022-11-04T15:04:22.401Z,81.65
2022-11-04T15:07:03.113Z,81.01
2022-11-04T15:09:36.818Z,84.97
2022-11-04T15:12:31.216Z,85.01
2022-11-04T15:14:59.295Z,89.80
2022-11-04T15:17:29.725Z,88.88
2022-11-04T15:19:58.794Z,89.23
2022-11-04T15:22:26.517Z,84.82
2022-11-04T15:24:54.321Z,84.69
2022-11-04T15:27:26.911Z,88.30
2022-11-04T15:29:55.997Z,87.67
2022-11-04T15:32:23.735Z,88.69
2022-11-04T15:34:51.518Z,88.94
2022-11-04T15:37:19.384Z,89.04
2022-11-04T15:39:48.688Z,90.17
2022-11-04T15:42:40.834Z,91.06
2022-11-04T15:45:38.326Z,94.56
2022-11-04T15:48:39.120Z,95.87
2022-11-04T15:51:26.073Z,95.68
2022-11-04T15:54:04.435Z,98.18
2022-11-04T15:56:40.537Z,97.68
2022-11-04T15:59:10.605Z,100.00
2022-11-04T16:01:48.049Z,100.00
2022-11-04T16:04:16.617Z,100.00
2022-11-04T16:06:45.262Z,100.00
2022-11-04T16:09:24.004Z,100.00
2022-11-04T16:12:16.579Z,100.00
2022-11-04T16:14:52.017Z,100.00
2022-11-04T16:17:20.376Z,100.00
2022-11-04T16:19:49.517Z,99.36
2022-11-04T16:22:45.960Z,100.00
2022-11-04T16:25:21.147Z,100.00
2022-11-04T16:27:48.968Z,100.00
2022-11-04T16:30:20.988Z,100.00
2022-11-04T16:32:49.688Z,100.00
2022-11-04T16:35:22.985Z,100.00
2022-11-04T16:37:51.966Z,93.44
2022-11-04T16:40:20.672Z,92.37
2022-11-04T16:42:48.792Z,92.13
2022-11-04T16:45:30.845Z,93.16
2022-11-04T16:48:03.662Z,91.88
2022-11-04T16:50:33.151Z,94.96
2022-11-04T16:53:00.930Z,96.38
2022-11-04T16:55:28.772Z,93.22
2022-11-04T16:58:00.931Z,92.56
2022-11-04T17:00:28.824Z,93.14
2022-11-04T17:02:56.979Z,92.77
2022-11-04T17:05:24.827Z,92.64
2022-11-04T17:07:55.444Z,93.17
2022-11-04T17:10:26.496Z,94.60
2022-11-04T17:12:54.399Z,97.19
2022-11-04T17:15:22.250Z,98.72
2022-11-04T17:17:50.100Z,99.18
2022-11-04T17:20:18.738Z,99.85
2022-11-04T17:22:47.906Z,100.00
2022-11-04T17:25:20.981Z,100.00
2022-11-04T17:27:49.463Z,100.00
2022-11-04T17:30:18.164Z,100.00
2022-11-04T17:32:46.303Z,100.00
2022-11-04T17:35:14.096Z,100.00
2022-11-04T17:37:42.051Z,100.00
2022-11-04T17:40:13.208Z,100.00
2022-11-04T17:42:59.432Z,100.00
2022-11-04T17:45:27.215Z,100.00
2022-11-04T17:47:55.041Z,100.00
2022-11-04T17:50:23.050Z,100.00
2022-11-04T17:52:50.824Z,100.00
2022-11-04T17:55:23.164Z,100.00
2022-11-04T17:57:54.045Z,100.00
2022-11-04T18:00:25.450Z,100.00
2022-11-04T18:02:53.335Z,100.00
2022-11-04T18:05:21.521Z,100.00
2022-11-04T18:07:49.261Z,100.00
2022-11-04T18:10:17.082Z,100.00
2022-11-04T18:12:45.054Z,100.00
2022-11-04T18:15:13.668Z,100.00
2022-11-04T18:17:42.139Z,100.00
2022-11-04T18:20:14.187Z,99.90
2022-11-04T18:22:42.290Z,100.00
2022-11-04T18:25:10.879Z,100.00
2022-11-04T18:27:38.750Z,100.00
2022-11-04T18:30:11.945Z,100.00
2022-11-04T18:32:39.821Z,99.92
2022-11-04T18:35:07.978Z,100.00
2022-11-04T18:37:35.751Z,100.00
2022-11-04T18:40:03.607Z,100.00
2022-11-04T18:42:31.418Z,100.00
2022-11-04T18:44:59.132Z,100.00
2022-11-04T18:47:26.988Z,100.00
2022-11-04T18:49:54.883Z,100.00
2022-11-04T18:52:22.875Z,100.00
2022-11-04T18:54:50.716Z,100.00
2022-11-04T18:57:18.596Z,100.00
2022-11-04T18:59:46.942Z,100.00
2022-11-04T19:02:21.440Z,100.00
2022-11-04T19:04:49.355Z,100.00
2022-11-04T19:07:17.206Z,100.00
2022-11-04T19:09:47.036Z,100.00
2022-11-04T19:12:34.483Z,100.00
2022-11-04T19:15:02.378Z,100.00
2022-11-04T19:17:30.194Z,100.00
2022-11-04T19:19:57.982Z,100.00
2022-11-04T19:22:25.765Z,100.00
2022-11-04T19:24:54.211Z,100.00
2022-11-04T19:27:24.058Z,100.00
2022-11-04T19:29:52.521Z,100.00
2022-11-04T19:32:20.393Z,100.00
2022-11-04T19:34:48.315Z,100.00
2022-11-04T19:37:16.193Z,100.00
2022-11-04T19:39:44.117Z,100.00
2022-11-04T19:42:31.220Z,100.00
2022-11-04T19:44:59.116Z,100.00
2022-11-04T19:47:31.898Z,100.00
2022-11-04T19:49:59.692Z,100.00
2022-11-04T19:52:27.477Z,100.00
2022-11-04T19:54:55.773Z,100.00
2022-11-04T19:57:23.678Z,100.00
2022-11-04T19:59:53.417Z,100.00
2022-11-04T20:02:21.827Z,100.00
2022-11-04T20:04:51.223Z,98.62
2022-11-04T20:07:19.043Z,99.26
2022-11-04T20:09:46.902Z,100.00
2022-11-04T20:12:33.515Z,100.00
2022-11-04T20:15:01.471Z,100.00
2022-11-04T20:17:29.548Z,100.00
2022-11-04T20:19:57.590Z,100.00
2022-11-04T20:22:33.142Z,100.00
2022-11-04T20:25:01.085Z,100.00
2022-11-04T20:27:28.922Z,100.00
2022-11-04T20:29:56.948Z,100.00
2022-11-04T20:32:24.827Z,100.00
2022-11-04T20:34:52.632Z,100.00
2022-11-04T20:40:10.671Z,100.00
2022-11-04T20:42:38.579Z,100.00
2022-11-04T20:45:06.898Z,100.00
2022-11-04T20:47:34.807Z,100.00
2022-11-04T20:50:02.590Z,100.00
2022-11-04T20:52:30.642Z,100.00
2022-11-04T20:54:58.498Z,100.00
2022-11-04T20:57:26.365Z,100.00
2022-11-04T20:59:54.591Z,100.00
2022-11-04T21:02:24.107Z,100.00
2022-11-04T21:04:52.985Z,100.00
2022-11-04T21:07:21.228Z,100.00
2022-11-04T21:09:52.238Z,100.00
2022-11-04T21:12:20.788Z,100.00
2022-11-04T21:14:51.667Z,100.00
2022-11-04T21:17:19.815Z,100.00
2022-11-04T21:19:47.746Z,100.00
2022-11-04T21:22:15.598Z,100.00
2022-11-04T21:24:43.426Z,100.00
2022-11-04T21:27:11.274Z,100.00
2022-11-04T21:29:39.128Z,100.00
2022-11-04T21:32:07.365Z,100.00
2022-11-04T21:34:35.163Z,100.00
2022-11-04T21:37:02.911Z,100.00
2022-11-04T21:39:30.873Z,100.00
2022-11-04T21:41:58.698Z,100.00
2022-11-04T21:44:26.545Z,100.00
2022-11-04T21:46:54.847Z,100.00
2022-11-04T21:49:22.710Z,100.00
2022-11-04T21:51:50.581Z,100.00
2022-11-04T21:54:18.746Z,100.00
2022-11-04T21:56:47.780Z,100.00
2022-11-04T21:59:18.523Z,100.00
2022-11-04T22:01:47.026Z,100.00
2022-11-04T22:04:14.984Z,100.00
2022-11-04T22:06:42.808Z,100.00
2022-11-04T22:09:10.622Z,100.00
2022-11-04T22:11:40.516Z,100.00
2022-11-04T22:14:09.892Z,100.00
2022-11-04T22:16:39.763Z,100.00
2022-11-04T22:19:09.289Z,100.00
2022-11-04T22:21:39.975Z,100.00
2022-11-04T22:24:08.102Z,100.00
2022-11-04T22:26:36.016Z,100.00
2022-11-04T22:29:03.805Z,100.00
2022-11-04T22:31:36.291Z,100.00
2022-11-04T22:34:06.133Z,100.00
2022-11-04T22:36:34.221Z,100.00
2022-11-04T22:39:02.093Z,100.00
2022-11-04T22:41:32.164Z,100.00
2022-11-04T22:44:00.309Z,100.00
2022-11-04T22:46:29.793Z,100.00
2022-11-04T22:48:57.668Z,100.00
2022-11-04T22:51:25.516Z,100.00
2022-11-04T22:53:58.941Z,100.00
2022-11-04T22:56:28.354Z,100.00
2022-11-04T22:58:56.385Z,100.00
2022-11-04T23:01:24.301Z,100.00
2022-11-04T23:03:53.150Z,100.00
2022-11-04T23:06:21.055Z,100.00
2022-11-04T23:08:49.319Z,100.00
2022-11-04T23:11:37.752Z,100.00
2022-11-04T23:14:24.638Z,100.00
2022-11-04T23:17:14.215Z,100.00
2022-11-04T23:19:42.602Z,100.00
2022-11-04T23:22:48.666Z,100.00
2022-11-04T23:25:16.455Z,100.00
2022-11-04T23:28:07.516Z,100.00
2022-11-04T23:30:37.134Z,100.00
2022-11-04T23:33:07.036Z,100.00
2022-11-04T23:36:01.427Z,100.00
2022-11-04T23:38:32.532Z,100.00
2022-11-04T23:41:20.248Z,100.00
2022-11-04T23:43:48.119Z,100.00
2022-11-04T23:46:39.388Z,100.00
2022-11-04T23:49:47.498Z,100.00
2022-11-04T23:52:41.666Z,100.00
2022-11-04T23:55:28.735Z,100.00
2022-11-04T23:58:14.995Z,100.00
